Etusivu
METAR-TAF:

METAR-TAF

Lentoasemat :

Windhoek, Namibia

Leveyspiiri: 22-29S, Pituuspiiri: 017-28E, korkeus merenpinnasta: 1715 m

Tämänhetkinen sää

Tämä raportti tehtiin 23 minuuttia sitten, kello 04.00 UTC
tyyntä
Lämpötila 7°C
Kosteus 53%
Ilmanpaine 1021 hPa
Näkyvyys 10 km tai enemmän
ei pilviä alle 1500 m:ssä eikä cumulonimbus-pilviä

METAR: FYWH 230400Z 00000KT CAVOK 07/M02 Q1021 NOSIG

Aika: 05:23 (04:23 UTC)

Sääennuste

Tämä raportti tehtiin 6 tuntia ja 23 minuuttia sitten, kello 22.00 UTC
Ennuste voimassa 23. päivästä klo 00 UTC - 24. päivään klo 00 UTC
Tuuli 5 kn lännestä
Näkyvyys 10 km tai enemmän
ei pilviä alle 1500 m:ssä eikä cumulonimbus-pilviä
Tulossa
23. päivästä klo 09 UTC - 23. päivään klo 11 UTC
Tuuli 15 kn luoteesta
Tulossa
23. päivästä klo 16 UTC - 23. päivään klo 18 UTC
Tuuli 6 kn lännestä

TAF: FYWH 222200Z 2300/2400 26005KT CAVOK BECMG 2309/2311 31015KT BECMG 2316/2318 27006KT

Säähavainnot ja -ennusteet yli 4000 lentoasemalta (METAR- ja TAF-raportit).

Käytössä olevat sääasemat on merkitty karttaan keltaisilla ja punaisilla pisteillä.

Aseta hiiri pisteen päälle nähdäksesi sääaseman nimen.

Klikkaa sitten nähdäksesi säähavainnot ja -ennusteet.

Kartan vaihtaminen: klikkaa mustalla rastilla varustettuja vihreitä pisteitä, niin voit zoomata sisään; viivalla varustettua vihreää pistettä, niin voit zoomata ulos tai vihreitä nuolia, niin pääset viereisille kartoille.


METAR-TAF: